La rose des vents
Donnes mto: Semaine 19/03/07 - 25/03/07 (S 12)
Date Horaire Temp. E. Hum. E. P.atmo. Pluie Vent 1mn Direction Ensoleilleme Ev.Tr. Solaire P. de rose Temp au vent Rafales
19/03/2007 00:00 13,8 C 53 % 998,4 hPa 0,0 l/m 27,6 km/h (4 Bft) O-SO 0,00 h 0,152 mm 0 W/m 4,4 C 13,8 C 36,8 km/h (5 Bft)
19/03/2007 01:00 12,6 C 59 % 997,4 hPa 0,0 l/m 34,3 km/h (5 Bft) O-SO 0,00 h 0,152 mm 0 W/m 4,9 C 12,6 C 45,2 km/h (6 Bft)
19/03/2007 02:00 12,0 C 63 % 997,0 hPa 0,0 l/m 37,0 km/h (5 Bft) O-SO 0,00 h 0,152 mm 0 W/m 5,1 C 12,0 C 47,7 km/h (6 Bft)
19/03/2007 03:00 11,3 C 66 % 996,1 hPa 0,0 l/m 32,7 km/h (5 Bft) SO 0,00 h 0,152 mm 0 W/m 5,1 C 11,3 C 42,2 km/h (6 Bft)
19/03/2007 04:00 10,8 C 68 % 995,0 hPa 0,0 l/m 29,8 km/h (5 Bft) SO 0,00 h 0,127 mm 0 W/m 5,1 C 10,8 C 37,7 km/h (5 Bft)
19/03/2007 05:00 10,3 C 70 % 994,1 hPa 0,0 l/m 20,9 km/h (4 Bft) SO 0,00 h 0,102 mm 0 W/m 5,0 C 10,3 C 26,4 km/h (4 Bft)
19/03/2007 06:00 10,9 C 55 % 992,5 hPa 0,0 l/m 14,9 km/h (3 Bft) O-SO 0,03 h 0,076 mm 12 W/m 2,2 C 10,9 C 20,7 km/h (4 Bft)
19/03/2007 07:00 11,4 C 45 % 991,0 hPa 0,0 l/m 17,4 km/h (3 Bft) O-SO 0,00 h 0,076 mm 47 W/m 0,0 C 11,4 C 25,5 km/h (4 Bft)
19/03/2007 08:00 11,8 C 40 % 989,9 hPa 0,0 l/m 21,9 km/h (4 Bft) O-SO 0,00 h 0,127 mm 82 W/m -1,5 C 11,8 C 30,6 km/h (5 Bft)
19/03/2007 09:00 12,2 C 30 % 989,6 hPa 0,0 l/m 19,9 km/h (4 Bft) O-SO 0,00 h 0,203 mm 189 W/m -4,8 C 12,2 C 27,3 km/h (4 Bft)
19/03/2007 10:00 13,7 C 26 % 988,8 hPa 0,0 l/m 22,3 km/h (4 Bft) O-SO 0,43 h 0,254 mm 370 W/m -5,5 C 13,7 C 31,8 km/h (5 Bft)
19/03/2007 11:00 13,4 C 29 % 988,2 hPa 0,0 l/m 27,8 km/h (4 Bft) SO 0,22 h 0,381 mm 319 W/m -4,5 C 13,4 C 37,3 km/h (5 Bft)
19/03/2007 12:00 12,2 C 34 % 987,7 hPa 0,0 l/m 33,3 km/h (5 Bft) SO 0,17 h 0,406 mm 320 W/m -3,1 C 12,2 C 43,4 km/h (6 Bft)
19/03/2007 13:00 11,9 C 40 % 986,9 hPa 0,0 l/m 30,7 km/h (5 Bft) SO 0,12 h 0,406 mm 315 W/m -1,3 C 11,9 C 39,9 km/h (6 Bft)
19/03/2007 14:00 13,8 C 37 % 985,0 hPa 0,0 l/m 30,7 km/h (5 Bft) SO 0,98 h 0,356 mm 600 W/m -0,9 C 13,8 C 41,4 km/h (6 Bft)
19/03/2007 15:00 13,3 C 37 % 984,3 hPa 0,0 l/m 32,6 km/h (5 Bft) O-NO 0,83 h 0,533 mm 444 W/m -1,9 C 12,8 C 46,5 km/h (6 Bft)
19/03/2007 16:00 10,0 C 44 % 983,7 hPa 0,0 l/m 32,6 km/h (5 Bft) SO 0,73 h 0,457 mm 258 W/m -1,8 C 8,4 C 43,3 km/h (6 Bft)
19/03/2007 17:00 9,2 C 48 % 983,4 hPa 0,0 l/m 32,3 km/h (5 Bft) O-SO 0,40 h 0,305 mm 120 W/m -1,2 C 6,5 C 43,5 km/h (6 Bft)
19/03/2007 18:00 8,0 C 41 % 981,6 hPa 0,0 l/m 16,5 km/h (3 Bft) O 0,00 h 0,229 mm 16 W/m -4,7 C 5,5 C 25,1 km/h (4 Bft)
19/03/2007 19:00 8,5 C 32 % 981,3 hPa 0,0 l/m 10,0 km/h (2 Bft) S-SO 0,00 h 0,102 mm 0 W/m -7,3 C 7,0 C 15,7 km/h (3 Bft)
19/03/2007 20:00 8,2 C 38 % 981,8 hPa 0,0 l/m 19,0 km/h (3 Bft) NO 0,00 h 0,102 mm 0 W/m -5,3 C 5,3 C 31,3 km/h (5 Bft)
19/03/2007 21:00 8,3 C 31 % 982,0 hPa 0,0 l/m 18,6 km/h (3 Bft) O-SO 0,00 h 0,127 mm 0 W/m -7,7 C 5,5 C 25,9 km/h (4 Bft)
19/03/2007 22:00 6,8 C 31 % 982,3 hPa 0,0 l/m 18,1 km/h (3 Bft) O-SO 0,00 h 0,127 mm 0 W/m -9,3 C 3,8 C 23,5 km/h (4 Bft)
19/03/2007 23:00 6,9 C 27 % 982,1 hPa 0,0 l/m 17,1 km/h (3 Bft) SO 0,00 h 0,127 mm 0 W/m -10,7 C 3,9 C 23,3 km/h (4 Bft)
20/03/2007 00:00 7,8 C 23 % 982,0 hPa 0,0 l/m 14,7 km/h (3 Bft) O-SO 0,00 h 0,127 mm 0 W/m -11,9 C 5,2 C 21,0 km/h (4 Bft)
20/03/2007 01:00 6,6 C 29 % 982,0 hPa 0,0 l/m 17,4 km/h (3 Bft) O-SO 0,00 h 0,127 mm 0 W/m -10,0 C 3,5 C 23,5 km/h (4 Bft)
20/03/2007 02:00 6,2 C 30 % 982,0 hPa 0,0 l/m 11,7 km/h (2 Bft) O-SO 0,00 h 0,127 mm 0 W/m -10,2 C 4,0 C 15,9 km/h (3 Bft)
20/03/2007 03:00 5,5 C 32 % 982,1 hPa 0,0 l/m 2,9 km/h (1 Bft) N-NO 0,00 h 0,102 mm 0 W/m -10,1 C 5,2 C 4,9 km/h (1 Bft)
20/03/2007 04:00 4,6 C 41 % 982,1 hPa 0,0 l/m 0,2 km/h (0 Bft) N-NO 0,00 h 0,051 mm 0 W/m -7,7 C 4,6 C 2,0 km/h (1 Bft)
20/03/2007 05:00 5,1 C 45 % 982,5 hPa 0,0 l/m 0,5 km/h (0 Bft) N-NO 0,00 h 0,025 mm 0 W/m -5,7 C 5,1 C 1,5 km/h (1 Bft)
20/03/2007 06:00 5,4 C 47 % 982,8 hPa 0,0 l/m 4,5 km/h (1 Bft) O-NO 0,00 h 0,025 mm 9 W/m -5,1 C 4,7 C 6,1 km/h (2 Bft)
20/03/2007 07:00 5,6 C 50 % 983,3 hPa 0,0 l/m 6,2 km/h (2 Bft) O 0,00 h 0,025 mm 36 W/m -4,0 C 4,4 C 8,6 km/h (2 Bft)
20/03/2007 08:00 6,6 C 42 % 983,7 hPa 0,0 l/m 5,8 km/h (2 Bft) O 0,00 h 0,051 mm 121 W/m -5,4 C 5,7 C 8,4 km/h (2 Bft)
20/03/2007 09:00 8,7 C 29 % 983,8 hPa 0,0 l/m 6,9 km/h (2 Bft) O-SO 0,50 h 0,102 mm 289 W/m -8,5 C 7,8 C 10,3 km/h (2 Bft)
20/03/2007 10:00 10,4 C 24 % 983,8 hPa 0,0 l/m 7,0 km/h (2 Bft) O 1,00 h 0,178 mm 416 W/m -9,4 C 10,1 C 11,1 km/h (2 Bft)
20/03/2007 11:00 11,2 C 24 % 983,7 hPa 0,0 l/m 4,8 km/h (1 Bft) NE 0,43 h 0,254 mm 354 W/m -8,4 C 11,2 C 7,8 km/h (2 Bft)
20/03/2007 12:00 10,7 C 27 % 984,1 hPa 0,0 l/m 4,7 km/h (1 Bft) E 0,00 h 0,229 mm 226 W/m -7,6 C 10,7 C 7,6 km/h (2 Bft)
20/03/2007 13:00 10,3 C 26 % 984,2 hPa 0,0 l/m 8,5 km/h (2 Bft) S-SO 0,00 h 0,152 mm 220 W/m -8,4 C 10,3 C 11,8 km/h (2 Bft)
20/03/2007 14:00 10,4 C 25 % 984,3 hPa 0,0 l/m 10,3 km/h (2 Bft) SO 0,00 h 0,178 mm 274 W/m -8,5 C 10,4 C 14,3 km/h (3 Bft)
20/03/2007 15:00 10,7 C 25 % 984,8 hPa 0,0 l/m 8,3 km/h (2 Bft) SO 0,48 h 0,229 mm 293 W/m -8,4 C 10,7 C 11,6 km/h (2 Bft)
20/03/2007 16:00 11,0 C 25 % 985,1 hPa 0,0 l/m 6,5 km/h (2 Bft) SO 0,97 h 0,203 mm 251 W/m -8,3 C 11,0 C 9,3 km/h (2 Bft)
20/03/2007 17:00 10,5 C 27 % 985,9 hPa 0,0 l/m 1,1 km/h (1 Bft) S-SE 0,43 h 0,178 mm 113 W/m -7,6 C 10,5 C 2,4 km/h (1 Bft)
20/03/2007 18:00 9,0 C 31 % 986,9 hPa 0,0 l/m 2,6 km/h (1 Bft) S-SE 0,00 h 0,076 mm 21 W/m -7,1 C 9,0 C 3,9 km/h (1 Bft)
20/03/2007 19:00 7,3 C 37 % 987,9 hPa 0,0 l/m 2,5 km/h (1 Bft) NO 0,00 h 0,025 mm 0 W/m -6,4 C 7,1 C 4,5 km/h (1 Bft)
20/03/2007 20:00 6,2 C 41 % 988,8 hPa 0,0 l/m 1,1 km/h (1 Bft) NO 0,00 h 0,051 mm 0 W/m -6,0 C 6,1 C 2,8 km/h (1 Bft)
20/03/2007 21:00 6,3 C 41 % 989,3 hPa 0,0 l/m 6,2 km/h (2 Bft) O-NO 0,00 h 0,051 mm 0 W/m -5,9 C 5,2 C 8,9 km/h (2 Bft)
20/03/2007 22:00 5,9 C 42 % 990,0 hPa 0,0 l/m 7,9 km/h (2 Bft) O-NO 0,00 h 0,051 mm 0 W/m -5,9 C 4,4 C 11,1 km/h (2 Bft)
20/03/2007 23:00 6,3 C 42 % 990,5 hPa 0,0 l/m 9,8 km/h (2 Bft) O-NO 0,00 h 0,076 mm 0 W/m -5,7 C 4,4 C 13,1 km/h (3 Bft)
21/03/2007 00:00 5,9 C 42 % 990,7 hPa 0,0 l/m 6,4 km/h (2 Bft) O-NO 0,00 h 0,076 mm 0 W/m -6,1 C 4,6 C 9,1 km/h (2 Bft)
21/03/2007 01:00 6,1 C 38 % 990,8 hPa 0,0 l/m 2,3 km/h (1 Bft) S-SO 0,00 h 0,051 mm 0 W/m -7,2 C 5,9 C 3,9 km/h (1 Bft)
21/03/2007 02:00 6,5 C 34 % 991,2 hPa 0,0 l/m 1,9 km/h (1 Bft) NO 0,00 h 0,051 mm 0 W/m -8,2 C 6,3 C 3,5 km/h (1 Bft)
21/03/2007 03:00 6,4 C 33 % 991,3 hPa 0,0 l/m 0,6 km/h (0 Bft) N 0,00 h 0,051 mm 0 W/m -8,8 C 6,4 C 1,3 km/h (1 Bft)
21/03/2007 04:00 5,4 C 39 % 991,6 hPa 0,0 l/m 2,5 km/h (1 Bft) E-NE 0,00 h 0,051 mm 0 W/m -7,4 C 5,3 C 3,9 km/h (1 Bft)
21/03/2007 05:00 5,6 C 40 % 992,0 hPa 0,0 l/m 2,7 km/h (1 Bft) E-SE 0,00 h 0,051 mm 0 W/m -6,8 C 5,4 C 3,7 km/h (1 Bft)
21/03/2007 06:00 5,2 C 39 % 992,9 hPa 0,0 l/m 4,7 km/h (1 Bft) O-SO 0,00 h 0,051 mm 11 W/m -7,5 C 4,5 C 6,1 km/h (2 Bft)
21/03/2007 07:00 5,7 C 38 % 993,6 hPa 0,0 l/m 4,3 km/h (1 Bft) O-NO 0,33 h 0,025 mm 100 W/m -7,5 C 5,1 C 6,1 km/h (2 Bft)
21/03/2007 08:00 10,1 C 29 % 994,0 hPa 0,0 l/m 3,4 km/h (1 Bft) S 1,00 h 0,076 mm 318 W/m -7,1 C 10,1 C 5,5 km/h (1 Bft)
21/03/2007 09:00 11,6 C 26 % 994,4 hPa 0,0 l/m 7,5 km/h (2 Bft) S 1,00 h 0,178 mm 474 W/m -7,1 C 11,6 C 11,5 km/h (2 Bft)
21/03/2007 10:00 12,9 C 24 % 994,9 hPa 0,0 l/m 7,9 km/h (2 Bft) S 1,00 h 0,305 mm 617 W/m -7,0 C 12,9 C 13,3 km/h (3 Bft)
21/03/2007 11:00 13,4 C 22 % 995,2 hPa 0,0 l/m 10,8 km/h (2 Bft) S 1,00 h 0,381 mm 716 W/m -8,1 C 13,4 C 16,6 km/h (3 Bft)
21/03/2007 12:00 13,5 C 21 % 995,6 hPa 0,0 l/m 12,2 km/h (2 Bft) S 0,67 h 0,457 mm 612 W/m -8,4 C 13,5 C 17,8 km/h (3 Bft)
21/03/2007 13:00 10,9 C 32 % 996,8 hPa 0,0 l/m 17,1 km/h (3 Bft) O-SO 0,10 h 0,432 mm 287 W/m -5,3 C 10,9 C 24,5 km/h (4 Bft)
21/03/2007 14:00 11,9 C 29 % 996,8 hPa 0,0 l/m 16,4 km/h (3 Bft) O-SO 0,60 h 0,254 mm 437 W/m -5,8 C 11,9 C 22,0 km/h (4 Bft)
21/03/2007 15:00 12,6 C 28 % 997,1 hPa 0,0 l/m 16,1 km/h (3 Bft) SO 1,00 h 0,356 mm 512 W/m -5,3 C 12,6 C 22,0 km/h (4 Bft)
21/03/2007 16:00 11,9 C 30 % 997,5 hPa 0,0 l/m 18,9 km/h (3 Bft) O-SO 0,38 h 0,381 mm 218 W/m -5,2 C 11,9 C 25,0 km/h (4 Bft)
21/03/2007 17:00 9,9 C 38 % 998,3 hPa 0,0 l/m 18,8 km/h (3 Bft) SO 0,00 h 0,254 mm 59 W/m -3,6 C 8,7 C 24,4 km/h (4 Bft)
21/03/2007 18:00 8,4 C 42 % 999,0 hPa 0,0 l/m 12,8 km/h (3 Bft) O 0,03 h 0,152 mm 17 W/m -3,6 C 6,3 C 17,4 km/h (3 Bft)
21/03/2007 19:00 7,2 C 45 % 999,6 hPa 0,0 l/m 9,2 km/h (2 Bft) O-NO 0,00 h 0,076 mm 0 W/m -3,9 C 5,5 C 12,1 km/h (2 Bft)
21/03/2007 20:00 6,5 C 45 % 1000,1 hPa 0,0 l/m 6,0 km/h (2 Bft) O-NO 0,00 h 0,051 mm 0 W/m -4,4 C 5,5 C 8,7 km/h (2 Bft)
21/03/2007 21:00 7,0 C 40 % 1000,7 hPa 0,0 l/m 7,0 km/h (2 Bft) O-NO 0,00 h 0,051 mm 0 W/m -5,7 C 5,8 C 9,9 km/h (2 Bft)
21/03/2007 22:00 6,4 C 41 % 1001,2 hPa 0,0 l/m 3,8 km/h (1 Bft) NO 0,00 h 0,076 mm 0 W/m -6,0 C 5,9 C 6,0 km/h (2 Bft)
21/03/2007 23:00 6,1 C 40 % 1001,8 hPa 0,0 l/m 5,2 km/h (1 Bft) N-NO 0,00 h 0,051 mm 0 W/m -6,6 C 5,2 C 8,5 km/h (2 Bft)
22/03/2007 00:00 7,0 C 34 % 1001,7 hPa 0,0 l/m 9,9 km/h (2 Bft) NO 0,00 h 0,051 mm 0 W/m -7,8 C 5,1 C 14,3 km/h (3 Bft)
22/03/2007 01:00 5,6 C 37 % 1001,8 hPa 0,0 l/m 2,6 km/h (1 Bft) NO 0,00 h 0,076 mm 0 W/m -8,1 C 5,3 C 4,3 km/h (1 Bft)
22/03/2007 02:00 6,1 C 33 % 1001,8 hPa 0,0 l/m 5,9 km/h (2 Bft) NO 0,00 h 0,051 mm 0 W/m -9,1 C 5,1 C 9,0 km/h (2 Bft)
22/03/2007 03:00 5,0 C 41 % 1002,2 hPa 0,0 l/m 5,6 km/h (1 Bft) S 0,00 h 0,076 mm 0 W/m -7,1 C 3,8 C 7,9 km/h (2 Bft)
22/03/2007 04:00 4,3 C 49 % 1002,6 hPa 0,0 l/m 5,5 km/h (1 Bft) O-NO 0,00 h 0,051 mm 0 W/m -5,6 C 3,2 C 7,8 km/h (2 Bft)
22/03/2007 05:00 4,5 C 46 % 1003,0 hPa 0,0 l/m 3,7 km/h (1 Bft) NO 0,00 h 0,051 mm 0 W/m -6,0 C 4,1 C 5,4 km/h (1 Bft)
22/03/2007 06:00 4,0 C 42 % 1003,5 hPa 0,0 l/m 2,7 km/h (1 Bft) N-NO 0,03 h 0,051 mm 13 W/m -7,8 C 3,6 C 4,4 km/h (1 Bft)
22/03/2007 07:00 5,8 C 36 % 1004,0 hPa 0,0 l/m 1,7 km/h (1 Bft) O 0,33 h 0,025 mm 80 W/m -8,2 C 5,8 C 2,8 km/h (1 Bft)
22/03/2007 08:00 8,6 C 31 % 1004,2 hPa 0,0 l/m 1,0 km/h (0 Bft) E-SE 1,00 h 0,051 mm 302 W/m -7,8 C 8,6 C 2,4 km/h (1 Bft)
22/03/2007 09:00 10,8 C 28 % 1004,3 hPa 0,0 l/m 5,0 km/h (1 Bft) E 1,00 h 0,152 mm 469 W/m -7,0 C 10,8 C 7,8 km/h (2 Bft)
22/03/2007 10:00 12,0 C 28 % 1004,2 hPa 0,0 l/m 12,1 km/h (2 Bft) S-SO 1,00 h 0,279 mm 610 W/m -5,8 C 12,0 C 17,6 km/h (3 Bft)
22/03/2007 11:00 12,4 C 29 % 1003,7 hPa 0,0 l/m 14,1 km/h (3 Bft) S 1,00 h 0,406 mm 663 W/m -5,4 C 12,4 C 20,6 km/h (4 Bft)
22/03/2007 12:00 13,2 C 27 % 1003,5 hPa 0,0 l/m 12,4 km/h (3 Bft) S 0,88 h 0,432 mm 651 W/m -5,1 C 13,2 C 19,3 km/h (3 Bft)
22/03/2007 13:00 13,0 C 28 % 1003,3 hPa 0,0 l/m 20,3 km/h (4 Bft) S 0,90 h 0,432 mm 657 W/m -4,9 C 13,0 C 28,0 km/h (4 Bft)
22/03/2007 14:00 12,0 C 33 % 1003,5 hPa 0,0 l/m 18,5 km/h (3 Bft) S-SE 0,63 h 0,508 mm 430 W/m -4,0 C 12,0 C 25,3 km/h (4 Bft)
22/03/2007 15:00 11,2 C 41 % 1003,7 hPa 0,0 l/m 15,0 km/h (3 Bft) S-SE 0,28 h 0,356 mm 248 W/m -1,5 C 11,2 C 22,3 km/h (4 Bft)
22/03/2007 16:00 10,2 C 49 % 1003,8 hPa 0,0 l/m 9,8 km/h (2 Bft) E 0,00 h 0,229 mm 43 W/m 0,1 C 9,8 C 17,0 km/h (3 Bft)
22/03/2007 17:00 6,6 C 73 % 1004,8 hPa 1,4 l/m 19,1 km/h (3 Bft) O-NO 0,00 h 0,076 mm 7 W/m 1,9 C 3,2 C 28,6 km/h (4 Bft)
22/03/2007 18:00 4,1 C 89 % 1005,8 hPa 1,8 l/m 21,9 km/h (4 Bft) O-NO 0,00 h 0,051 mm 0 W/m 2,5 C -0,2 C 28,3 km/h (4 Bft)
22/03/2007 19:00 4,1 C 90 % 1005,7 hPa 0,0 l/m 14,6 km/h (3 Bft) O-NO 0,00 h 0,025 mm 0 W/m 2,5 C 0,7 C 18,7 km/h (3 Bft)
22/03/2007 20:00 3,9 C 87 % 1005,9 hPa 0,0 l/m 13,4 km/h (3 Bft) O-NO 0,00 h 0,025 mm 0 W/m 2,0 C 0,7 C 17,2 km/h (3 Bft)
22/03/2007 21:00 3,6 C 85 % 1005,9 hPa 0,0 l/m 8,1 km/h (2 Bft) O-NO 0,00 h 0,025 mm 0 W/m 1,3 C 1,6 C 11,5 km/h (2 Bft)
22/03/2007 22:00 3,3 C 84 % 1005,9 hPa 0,0 l/m 6,7 km/h (2 Bft) O-NO 0,00 h 0,025 mm 0 W/m 0,9 C 1,7 C 10,1 km/h (2 Bft)
22/03/2007 23:00 3,5 C 79 % 1005,9 hPa 0,0 l/m 6,3 km/h (2 Bft) NO 0,00 h 0,025 mm 0 W/m 0,2 C 1,9 C 9,3 km/h (2 Bft)
23/03/2007 00:00 3,3 C 77 % 1005,5 hPa 0,0 l/m 4,4 km/h (1 Bft) NO 0,00 h 0,025 mm 0 W/m -0,4 C 2,4 C 6,7 km/h (2 Bft)
23/03/2007 01:00 3,7 C 71 % 1005,2 hPa 0,0 l/m 3,8 km/h (1 Bft) O-NO 0,00 h 0,025 mm 0 W/m -1,2 C 3,0 C 5,7 km/h (1 Bft)
23/03/2007 02:00 3,9 C 65 % 1004,7 hPa 0,0 l/m 6,0 km/h (2 Bft) NO 0,00 h 0,025 mm 0 W/m -2,2 C 2,5 C 9,3 km/h (2 Bft)
23/03/2007 03:00 3,1 C 66 % 1004,0 hPa 0,0 l/m 3,4 km/h (1 Bft) N-NO 0,00 h 0,025 mm 0 W/m -2,7 C 2,6 C 5,4 km/h (1 Bft)
23/03/2007 04:00 2,5 C 66 % 1003,7 hPa 0,0 l/m 0,3 km/h (0 Bft) N-NO 0,00 h 0,025 mm 0 W/m -3,3 C 2,5 C 0,6 km/h (0 Bft)
23/03/2007 05:00 2,8 C 62 % 1003,4 hPa 0,0 l/m 1,7 km/h (1 Bft) NO 0,00 h 0,025 mm 0 W/m -3,8 C 2,6 C 3,1 km/h (1 Bft)
23/03/2007 06:00 2,8 C 60 % 1003,2 hPa 0,0 l/m 3,2 km/h (1 Bft) NO 0,08 h 0,025 mm 18 W/m -4,2 C 2,3 C 4,5 km/h (1 Bft)
23/03/2007 07:00 4,4 C 55 % 1002,7 hPa 0,0 l/m 2,1 km/h (1 Bft) O-SO 0,32 h 0,025 mm 109 W/m -3,8 C 4,0 C 3,1 km/h (1 Bft)
23/03/2007 08:00 7,6 C 49 % 1002,2 hPa 0,0 l/m 1,7 km/h (1 Bft) S 1,00 h 0,051 mm 383 W/m -2,4 C 7,6 C 3,2 km/h (1 Bft)
23/03/2007 09:00 9,2 C 47 % 1002,0 hPa 0,0 l/m 4,1 km/h (1 Bft) S 1,00 h 0,178 mm 447 W/m -1,7 C 8,8 C 6,7 km/h (2 Bft)
23/03/2007 10:00 9,8 C 44 % 1001,7 hPa 0,0 l/m 5,3 km/h (1 Bft) S 0,55 h 0,229 mm 391 W/m -2,0 C 9,4 C 7,8 km/h (2 Bft)
23/03/2007 11:00 10,3 C 39 % 1001,6 hPa 0,0 l/m 4,3 km/h (1 Bft) S 0,70 h 0,229 mm 416 W/m -3,1 C 10,3 C 7,2 km/h (2 Bft)
23/03/2007 12:00 11,8 C 34 % 1001,6 hPa 0,0 l/m 6,4 km/h (2 Bft) E 0,92 h 0,229 mm 516 W/m -3,5 C 11,8 C 10,7 km/h (2 Bft)
23/03/2007 13:00 11,6 C 38 % 1001,6 hPa 0,0 l/m 7,8 km/h (2 Bft) E 0,60 h 0,305 mm 409 W/m -2,3 C 11,6 C 11,4 km/h (2 Bft)
23/03/2007 14:00 11,6 C 38 % 1001,3 hPa 0,0 l/m 6,7 km/h (2 Bft) E 0,78 h 0,254 mm 463 W/m -2,1 C 11,6 C 10,6 km/h (2 Bft)
23/03/2007 15:00 12,3 C 34 % 1001,0 hPa 0,0 l/m 7,6 km/h (2 Bft) E 1,00 h 0,279 mm 585 W/m -3,0 C 12,3 C 12,4 km/h (3 Bft)
23/03/2007 16:00 12,3 C 38 % 1000,9 hPa 0,0 l/m 5,7 km/h (1 Bft) E 1,00 h 0,356 mm 458 W/m -1,5 C 12,3 C 9,6 km/h (2 Bft)
23/03/2007 17:00 10,8 C 48 % 1001,1 hPa 0,0 l/m 4,9 km/h (1 Bft) E 0,82 h 0,279 mm 181 W/m 0,1 C 10,8 C 7,7 km/h (2 Bft)
23/03/2007 18:00 8,3 C 58 % 1001,5 hPa 0,0 l/m 2,2 km/h (1 Bft) E 0,08 h 0,127 mm 25 W/m 0,6 C 8,2 C 4,2 km/h (1 Bft)
23/03/2007 19:00 6,6 C 63 % 1001,6 hPa 0,0 l/m 1,0 km/h (0 Bft) NE 0,00 h 0,025 mm 0 W/m 0,1 C 6,6 C 2,7 km/h (1 Bft)
23/03/2007 20:00 5,6 C 63 % 1001,8 hPa 0,0 l/m 0,8 km/h (0 Bft) N 0,00 h 0,000 mm 0 W/m -0,9 C 5,6 C 2,5 km/h (1 Bft)
23/03/2007 21:00 5,7 C 60 % 1001,7 hPa 0,0 l/m 1,3 km/h (1 Bft) N 0,00 h 0,025 mm 0 W/m -1,4 C 5,7 C 3,1 km/h (1 Bft)
23/03/2007 22:00 5,5 C 59 % 1001,6 hPa 0,0 l/m 3,6 km/h (1 Bft) O-NO 0,00 h 0,025 mm 0 W/m -2,0 C 5,1 C 5,8 km/h (2 Bft)
23/03/2007 23:00 6,1 C 50 % 1001,3 hPa 0,0 l/m 4,1 km/h (1 Bft) O-NO 0,00 h 0,025 mm 0 W/m -3,6 C 5,7 C 5,6 km/h (1 Bft)
24/03/2007 00:00 6,1 C 44 % 1000,9 hPa 0,0 l/m 5,3 km/h (1 Bft) O-NO 0,00 h 0,051 mm 0 W/m -5,2 C 5,2 C 7,3 km/h (2 Bft)
24/03/2007 01:00 6,4 C 41 % 1000,5 hPa 0,0 l/m 8,2 km/h (2 Bft) O-NO 0,00 h 0,051 mm 0 W/m -6,0 C 4,7 C 11,6 km/h (2 Bft)
24/03/2007 02:00 6,2 C 39 % 1000,1 hPa 0,0 l/m 7,9 km/h (2 Bft) O-NO 0,00 h 0,076 mm 0 W/m -6,6 C 4,5 C 10,6 km/h (2 Bft)
24/03/2007 03:00 5,9 C 38 % 999,5 hPa 0,0 l/m 7,5 km/h (2 Bft) O-NO 0,00 h 0,076 mm 0 W/m -7,4 C 4,4 C 10,3 km/h (2 Bft)
24/03/2007 04:00 5,6 C 38 % 999,3 hPa 0,0 l/m 4,7 km/h (1 Bft) O-NO 0,00 h 0,076 mm 0 W/m -7,5 C 5,0 C 6,8 km/h (2 Bft)
24/03/2007 05:00 5,0 C 41 % 999,3 hPa 0,0 l/m 4,1 km/h (1 Bft) NO 0,00 h 0,051 mm 0 W/m -7,3 C 4,4 C 6,4 km/h (2 Bft)
24/03/2007 06:00 4,6 C 44 % 999,1 hPa 0,0 l/m 9,2 km/h (2 Bft) O-NO 0,07 h 0,051 mm 18 W/m -6,7 C 2,4 C 13,6 km/h (3 Bft)
24/03/2007 07:00 5,9 C 42 % 999,1 hPa 0,0 l/m 5,3 km/h (1 Bft) O-NO 0,00 h 0,051 mm 72 W/m -5,9 C 5,1 C 8,1 km/h (2 Bft)
24/03/2007 08:00 7,6 C 44 % 999,2 hPa 0,0 l/m 2,1 km/h (1 Bft) NO 0,00 h 0,051 mm 117 W/m -4,0 C 7,4 C 4,0 km/h (1 Bft)
24/03/2007 09:00 10,4 C 43 % 999,3 hPa 0,0 l/m 1,5 km/h (1 Bft) NO 0,68 h 0,076 mm 426 W/m -1,7 C 10,4 C 3,0 km/h (1 Bft)
24/03/2007 10:00 12,3 C 36 % 999,3 hPa 0,0 l/m 4,4 km/h (1 Bft) E 0,52 h 0,203 mm 443 W/m -2,2 C 12,3 C 7,9 km/h (2 Bft)
24/03/2007 11:00 11,4 C 50 % 999,7 hPa 0,0 l/m 7,7 km/h (2 Bft) S 0,38 h 0,254 mm 375 W/m 1,3 C 11,4 C 12,3 km/h (3 Bft)
24/03/2007 12:00 10,7 C 59 % 999,8 hPa 0,0 l/m 7,7 km/h (2 Bft) E-NE 0,18 h 0,229 mm 238 W/m 2,9 C 10,6 C 11,6 km/h (2 Bft)
24/03/2007 13:00 4,6 C 79 % 1001,5 hPa 5,8 l/m 6,2 km/h (2 Bft) N 0,00 h 0,152 mm 5 W/m 1,1 C 3,4 C 10,4 km/h (2 Bft)
24/03/2007 14:00 2,1 C 89 % 1002,5 hPa 3,0 l/m 6,6 km/h (2 Bft) O-SO 0,00 h 0,025 mm 26 W/m 0,4 C 0,7 C 9,3 km/h (2 Bft)
24/03/2007 15:00 3,6 C 93 % 1001,6 hPa 3,4 l/m 9,1 km/h (2 Bft) O 0,03 h 0,025 mm 177 W/m 2,5 C 1,4 C 13,3 km/h (3 Bft)
24/03/2007 16:00 5,0 C 93 % 1001,7 hPa 14,0 l/m 10,2 km/h (2 Bft) O 0,75 h 0,076 mm 251 W/m 3,9 C 2,6 C 14,7 km/h (3 Bft)
24/03/2007 17:00 5,5 C 93 % 1001,7 hPa 0,6 l/m 7,8 km/h (2 Bft) O 0,03 h 0,102 mm 76 W/m 4,5 C 3,8 C 11,1 km/h (2 Bft)
24/03/2007 18:00 5,4 C 92 % 1002,3 hPa 1,0 l/m 6,7 km/h (2 Bft) O 0,00 h 0,051 mm 17 W/m 4,2 C 3,9 C 9,0 km/h (2 Bft)
24/03/2007 19:00 5,2 C 91 % 1003,0 hPa 1,6 l/m 1,1 km/h (1 Bft) O-NO 0,00 h 0,025 mm 0 W/m 3,8 C 5,1 C 2,2 km/h (1 Bft)
24/03/2007 20:00 5,1 C 91 % 1003,6 hPa 0,0 l/m 9,8 km/h (2 Bft) O 0,00 h 0,000 mm 0 W/m 3,8 C 3,0 C 14,7 km/h (3 Bft)
24/03/2007 21:00 5,2 C 90 % 1003,7 hPa 0,0 l/m 7,4 km/h (2 Bft) O 0,00 h 0,025 mm 0 W/m 3,7 C 3,5 C 10,3 km/h (2 Bft)
24/03/2007 22:00 4,7 C 87 % 1003,8 hPa 0,0 l/m 8,0 km/h (2 Bft) O-NO 0,00 h 0,025 mm 0 W/m 2,8 C 2,8 C 11,1 km/h (2 Bft)
24/03/2007 23:00 4,1 C 86 % 1004,2 hPa 0,0 l/m 7,3 km/h (2 Bft) O-NO 0,00 h 0,025 mm 0 W/m 2,0 C 2,4 C 10,8 km/h (2 Bft)
25/03/2007 00:00 4,1 C 83 % 1004,5 hPa 0,0 l/m 12,2 km/h (2 Bft) O-NO 0,00 h 0,025 mm 0 W/m 1,4 C 1,1 C 16,4 km/h (3 Bft)
25/03/2007 01:00 4,2 C 80 % 1005,0 hPa 0,0 l/m 8,0 km/h (2 Bft) O-NO 0,00 h 0,025 mm 0 W/m 1,0 C 2,3 C 11,7 km/h (2 Bft)
25/03/2007 03:00 4,4 C 76 % 1005,1 hPa 0,0 l/m 3,1 km/h (1 Bft) NO 0,00 h 0,025 mm 0 W/m 0,6 C 3,9 C 4,9 km/h (1 Bft)
25/03/2007 04:00 4,1 C 78 % 1005,0 hPa 0,0 l/m 3,6 km/h (1 Bft) N 0,00 h 0,025 mm 0 W/m 0,6 C 3,6 C 6,7 km/h (2 Bft)
25/03/2007 05:00 4,6 C 76 % 1004,7 hPa 0,0 l/m 8,7 km/h (2 Bft) O-NO 0,00 h 0,025 mm 0 W/m 0,7 C 2,6 C 12,2 km/h (2 Bft)
25/03/2007 06:00 4,3 C 74 % 1005,2 hPa 0,0 l/m 2,2 km/h (1 Bft) S-SO 0,00 h 0,025 mm 0 W/m 0,0 C 4,0 C 3,6 km/h (1 Bft)
25/03/2007 07:00 4,3 C 74 % 1006,1 hPa 0,0 l/m 2,4 km/h (1 Bft) O 0,00 h 0,025 mm 12 W/m 0,1 C 4,1 C 3,6 km/h (1 Bft)
25/03/2007 08:00 5,0 C 71 % 1006,9 hPa 0,0 l/m 3,8 km/h (1 Bft) O-NO 0,15 h 0,025 mm 76 W/m 0,2 C 4,3 C 5,8 km/h (2 Bft)
25/03/2007 09:00 7,8 C 63 % 1007,4 hPa 0,0 l/m 4,8 km/h (1 Bft) O-NO 1,00 h 0,051 mm 345 W/m 1,3 C 7,3 C 7,0 km/h (2 Bft)
25/03/2007 10:00 10,1 C 59 % 1007,6 hPa 0,0 l/m 6,4 km/h (2 Bft) SO 0,78 h 0,178 mm 432 W/m 2,5 C 9,9 C 9,4 km/h (2 Bft)
25/03/2007 11:00 10,3 C 57 % 1008,3 hPa 0,0 l/m 8,4 km/h (2 Bft) SO 0,63 h 0,229 mm 379 W/m 2,2 C 10,3 C 11,7 km/h (2 Bft)
25/03/2007 12:00 11,8 C 50 % 1008,7 hPa 0,2 l/m 7,3 km/h (2 Bft) SO 0,98 h 0,229 mm 637 W/m 1,8 C 11,8 C 10,6 km/h (2 Bft)
25/03/2007 13:00 13,3 C 52 % 1008,5 hPa 0,0 l/m 7,6 km/h (2 Bft) S-SE 1,00 h 0,356 mm 754 W/m 3,6 C 13,3 C 12,7 km/h (3 Bft)
25/03/2007 14:00 13,0 C 51 % 1008,4 hPa 0,0 l/m 10,0 km/h (2 Bft) S 0,72 h 0,432 mm 487 W/m 3,2 C 13,0 C 15,9 km/h (3 Bft)
25/03/2007 15:00 11,6 C 55 % 1008,8 hPa 0,0 l/m 14,3 km/h (3 Bft) S 0,17 h 0,305 mm 288 W/m 2,8 C 11,6 C 19,8 km/h (3 Bft)
25/03/2007 16:00 11,7 C 59 % 1009,2 hPa 0,0 l/m 11,9 km/h (2 Bft) S 0,55 h 0,229 mm 341 W/m 4,0 C 11,7 C 16,6 km/h (3 Bft)
25/03/2007 17:00 11,1 C 65 % 1009,5 hPa 0,0 l/m 15,1 km/h (3 Bft) S-SO 0,30 h 0,229 mm 204 W/m 4,7 C 11,1 C 20,3 km/h (4 Bft)
25/03/2007 18:00 10,3 C 70 % 1009,8 hPa 0,0 l/m 14,3 km/h (3 Bft) S-SO 0,00 h 0,152 mm 86 W/m 5,0 C 10,3 C 19,7 km/h (3 Bft)
25/03/2007 19:00 9,6 C 72 % 1010,3 hPa 0,0 l/m 12,9 km/h (3 Bft) SO 0,08 h 0,102 mm 29 W/m 4,9 C 7,7 C 17,5 km/h (3 Bft)
25/03/2007 20:00 8,8 C 75 % 1011,0 hPa 0,0 l/m 11,6 km/h (2 Bft) O-SO 0,00 h 0,051 mm 0 W/m 4,6 C 6,9 C 15,7 km/h (3 Bft)
25/03/2007 21:00 8,2 C 78 % 1011,3 hPa 0,0 l/m 15,5 km/h (3 Bft) SO 0,00 h 0,025 mm 0 W/m 4,7 C 5,7 C 19,2 km/h (3 Bft)
25/03/2007 22:00 8,2 C 81 % 1011,7 hPa 0,0 l/m 16,7 km/h (3 Bft) SO 0,00 h 0,051 mm 0 W/m 5,1 C 5,4 C 20,5 km/h (4 Bft)
25/03/2007 23:00 7,9 C 84 % 1012,0 hPa 0,0 l/m 17,9 km/h (3 Bft) O-SO 0,00 h 0,051 mm 0 W/m 5,3 C 4,9 C 22,3 km/h (4 Bft)
Min-Date _ 24/03/07 21/03/07 19/03/07 - 19/03/07 - - - - 20/03/07 24/03/07 20/03/07
_ Min-Heure 13:58 12:35 18:45 - 06:10 - - - - 00:03 14:54 03:15
Minimum _ 1,7 C 17 % 981,0 hPa - 0,0 km/h (0 Bft) - - - - -13,0 C -1,8 C 0,0 km/h (0 Bft)
Max-Date _ 19/03/07 24/03/07 25/03/07 24/03/07 19/03/07 - 19/03/07 19/03/07 21/03/07 19/03/07 19/03/07 19/03/07
_ Max-Heure 15:11 15:23 22:30 16:04 15:34 - 06:47 15:00 12:34 03:19 15:11 10:32
Maximum _ 15,4 C 93 % 1012,0 hPa 14,0 l/m 54,7 km/h
O-NO (7 Bft)
- 0,02 h 0,533 mm 963 W/m 6,1 C 15,4 C 70,8 km/h
SO (8 Bft)
Moyenne _ 8,0 C 50 % 997,7 hPa #32,8 l/m 9,9 km/h (2 Bft) O-NO #39:47 h #22,904 mm 278 W/m -2,9 C 7,2 C 14,0 km/h (3 Bft)
Roquefort les pins